Portada
METAR-TAF:

METAR-TAF

Aeroports :

Guilin, Xina

latitud: 25-20N, longitud: 110-18E, altitud: 166 m

Observació

L'informe es va fer fa 49 minuts, a les 00:00 UTC
Vent 2 kt amb direcció variable
Temperatura 24°C
Humitat 83%
Pressió 1010 hPa
Visibilitat: 5000 m
boirina

METAR: ZGKL 240000Z VRB01MPS 5000 BR NSC 24/21 Q1010 NOSIG

Hora: 08:49 (00:49 UTC)

Pronòstic

L'informe es va fer fa 5 hores i 35 minuts, a les 19:14 UTC
Pronòstic vàlid del 24 a les 00 UTC al 24 a les 24 UTC
Vent 4 kt del Nord-Est
Visibilitat: 6000 m
Núvols disperses a una alçada de 4000 ft
Cel ennuvolat a una alçada de 6000 ft

TAF: ZGKL 231914Z 2400/2424 05002MPS 6000 SCT040 BKN060 TX30/2408Z TN21/2422Z

Observacions i pronòstics meteorològics de més de 4000 aeroports (METAR i TAF).

Les estacions disponibles són els punts grocs i vermells al mapa.

Posi el ratolí al punt desitjat per veure el nom de l'estació.

Feu clic per veure les observacions i els pronòstics meteorològics.

Per canviar el mapa: feu clic els botons verds amb una creu de color negre per apropar; al botó verd amb un guió per allunyar la imatge; o en les fletxes verdes per a mapes adjacents.


METAR-TAF: